Time;durP1;ratioP1;P1;durP2;ratioP2;P2;SDS_P1;SDS_P2;PMS_P1;PMS_P2;Temp;Humidity;BMP_temperature;BMP_pressure;BME280_temperature;BME280_humidity;BME280_pressure;Samples;Min_cycle;Max_cycle;Signal;HPM_P1;HPM_P2
2023/01/11 00:00:22;;;;;;;31.08;12.88;;;;;;;;;;6253523;28;20054;-78
2023/01/11 00:03:25;;;;;;;79.47;32.58;;;;;;;;;;6252541;28;20052;-78
2023/01/11 00:06:27;;;;;;;99.65;39.90;;;;;;;;;;6250453;28;20053;-79
2023/01/11 00:09:28;;;;;;;31.25;12.40;;;;;;;;;;6251075;28;20065;-76
2023/01/11 00:12:30;;;;;;;13.45;6.45;;;;;;;;;;6249820;28;20346;-77
2023/01/11 00:15:31;;;;;;;11.77;6.43;;;;;;;;;;6254710;28;20057;-75
2023/01/11 00:18:35;;;;;;;14.75;7.00;;;;;;;;;;6253085;28;20050;-75
2023/01/11 00:21:37;;;;;;;11.50;5.75;;;;;;;;;;6248690;28;20147;-69
2023/01/11 00:24:39;;;;;;;11.88;6.00;;;;;;;;;;6248296;28;20433;-76
2023/01/11 00:27:41;;;;;;;12.73;6.10;;;;;;;;;;6245494;28;20049;-75
2023/01/11 00:30:42;;;;;;;12.52;6.30;;;;;;;;;;6250883;28;20057;-74
2023/01/11 00:33:45;;;;;;;10.15;5.88;;;;;;;;;;6247906;28;20222;-73
2023/01/11 00:36:47;;;;;;;11.35;6.57;;;;;;;;;;6247858;28;20222;-75
2023/01/11 00:39:49;;;;;;;13.10;6.40;;;;;;;;;;6246050;28;20053;-76
2023/01/11 00:49:32;;;;;;;10.20;6.13;;;;;;;;;;6223250;28;20059;-76
2023/01/11 00:52:34;;;;;;;15.00;6.10;;;;;;;;;;6248265;28;20057;-76
2023/01/11 00:55:36;;;;;;;10.45;5.55;;;;;;;;;;6245711;28;20372;-75
2023/01/11 00:58:37;;;;;;;11.52;5.82;;;;;;;;;;6246235;28;20053;-76
2023/01/11 01:01:39;;;;;;;11.38;5.47;;;;;;;;;;6248240;28;20045;-71
2023/01/11 01:04:43;;;;;;;15.02;5.70;;;;;;;;;;6247205;28;20049;-75
2023/01/11 01:07:45;;;;;;;11.02;5.82;;;;;;;;;;6247602;28;20100;-71
2023/01/11 01:10:47;;;;;;;10.25;5.60;;;;;;;;;;6248916;28;20065;-75
2023/01/11 01:17:09;;;;;;;15.52;5.72;;;;;;;;;;6249323;28;20042;-75
2023/01/11 01:20:13;;;;;;;14.20;5.55;;;;;;;;;;6245375;28;20099;-75
2023/01/11 01:23:15;;;;;;;25.90;7.57;;;;;;;;;;6248431;28;20353;-69
2023/01/11 01:26:17;;;;;;;26.85;6.50;;;;;;;;;;6247529;28;20678;-68
2023/01/11 01:29:19;;;;;;;11.25;4.90;;;;;;;;;;6246198;28;20061;-75
2023/01/11 01:32:21;;;;;;;12.38;5.18;;;;;;;;;;6246209;28;20064;-75
2023/01/11 01:35:24;;;;;;;12.90;5.38;;;;;;;;;;6246427;28;20068;-71
2023/01/11 01:38:26;;;;;;;11.83;5.67;;;;;;;;;;6248438;28;20053;-76
2023/01/11 01:41:28;;;;;;;11.27;5.50;;;;;;;;;;6245014;28;20057;-74
2023/01/11 01:44:53;;;;;;;11.20;5.50;;;;;;;;;;6247920;28;20083;-75
2023/01/11 01:47:58;;;;;;;8.70;5.05;;;;;;;;;;6248295;28;20050;-75
2023/01/11 01:51:01;;;;;;;11.88;5.50;;;;;;;;;;6247675;28;20095;-74
2023/01/11 01:54:05;;;;;;;13.90;5.45;;;;;;;;;;6250123;28;20049;-69
2023/01/11 01:57:11;;;;;;;9.07;5.30;;;;;;;;;;6244161;28;20041;-69
2023/01/11 02:00:13;;;;;;;14.38;5.47;;;;;;;;;;6245145;28;20056;-75
2023/01/11 02:03:17;;;;;;;12.63;5.22;;;;;;;;;;6246587;28;20049;-74
2023/01/11 02:06:23;;;;;;;9.90;5.10;;;;;;;;;;6246932;28;20052;-75
2023/01/11 02:09:27;;;;;;;11.00;5.38;;;;;;;;;;6247984;28;20286;-75
2023/01/11 02:12:31;;;;;;;11.85;5.82;;;;;;;;;;6243844;28;20057;-75
2023/01/11 02:15:33;;;;;;;11.35;5.13;;;;;;;;;;6246643;28;20072;-75
2023/01/11 02:18:35;;;;;;;12.25;5.25;;;;;;;;;;6247772;28;20054;-75
2023/01/11 02:21:50;;;;;;;11.98;5.95;;;;;;;;;;6248278;28;20049;-75
2023/01/11 02:25:20;;;;;;;11.93;6.00;;;;;;;;;;6247586;28;20313;-75
2023/01/11 02:28:25;;;;;;;11.88;5.85;;;;;;;;;;6246531;28;20046;-76
2023/01/11 02:31:30;;;;;;;11.93;5.95;;;;;;;;;;6246017;28;20048;-75
2023/01/11 02:34:37;;;;;;;10.70;5.90;;;;;;;;;;6249163;28;20345;-75
2023/01/11 02:37:45;;;;;;;11.98;5.55;;;;;;;;;;6247033;28;20901;-75
2023/01/11 02:40:52;;;;;;;12.00;5.78;;;;;;;;;;6241207;28;20380;-75
2023/01/11 02:47:26;;;;;;;11.88;5.78;;;;;;;;;;6246252;28;20341;-74
2023/01/11 02:50:29;;;;;;;13.95;6.47;;;;;;;;;;6243661;28;20053;-74
2023/01/11 02:53:36;;;;;;;12.80;6.50;;;;;;;;;;6246055;28;20050;-75
2023/01/11 02:56:40;;;;;;;14.18;6.25;;;;;;;;;;6245369;28;20267;-71
2023/01/11 02:59:44;;;;;;;20.55;6.03;;;;;;;;;;6242748;28;20050;-75
2023/01/11 03:02:45;;;;;;;12.63;6.28;;;;;;;;;;6246773;28;20061;-75
2023/01/11 03:05:51;;;;;;;14.60;5.95;;;;;;;;;;6246538;28;20053;-76
2023/01/11 03:09:13;;;;;;;12.90;6.28;;;;;;;;;;6244008;28;20045;-75
2023/01/11 03:16:22;;;;;;;10.90;6.07;;;;;;;;;;6216847;28;20054;-74
2023/01/11 03:19:30;;;;;;;10.70;5.30;;;;;;;;;;6220566;28;20053;-75
2023/01/11 03:22:39;;;;;;;12.63;5.60;;;;;;;;;;6220151;28;20318;-73
2023/01/11 03:25:50;;;;;;;8.95;5.80;;;;;;;;;;6219600;28;20119;-75
2023/01/11 03:28:55;;;;;;;8.27;4.93;;;;;;;;;;6218257;28;20064;-74
2023/01/11 03:32:07;;;;;;;8.18;5.32;;;;;;;;;;6217766;28;20069;-75
2023/01/11 03:35:16;;;;;;;7.72;4.85;;;;;;;;;;6216947;28;20054;-75
2023/01/11 03:38:22;;;;;;;9.07;4.78;;;;;;;;;;6217860;28;20060;-76
2023/01/11 03:41:27;;;;;;;8.45;4.97;;;;;;;;;;6218631;28;20054;-70
2023/01/11 03:44:32;;;;;;;7.53;4.47;;;;;;;;;;6218096;28;21005;-75
2023/01/11 03:47:36;;;;;;;6.15;4.18;;;;;;;;;;6221301;28;20054;-74
2023/01/11 03:50:38;;;;;;;7.97;4.50;;;;;;;;;;6221311;28;20046;-69
2023/01/11 03:53:40;;;;;;;7.40;4.70;;;;;;;;;;6246238;28;20199;-75
2023/01/11 03:56:45;;;;;;;5.80;3.95;;;;;;;;;;6246400;28;20045;-74
2023/01/11 03:59:48;;;;;;;7.32;4.05;;;;;;;;;;6248813;28;20054;-76
2023/01/11 04:02:52;;;;;;;7.60;4.45;;;;;;;;;;6250343;28;20057;-74
2023/01/11 04:05:57;;;;;;;8.18;4.03;;;;;;;;;;6248069;28;20125;-73
2023/01/11 04:08:59;;;;;;;7.72;4.18;;;;;;;;;;6249457;28;20318;-75
2023/01/11 04:12:01;;;;;;;7.07;4.18;;;;;;;;;;6249087;28;20260;-75
2023/01/11 04:15:04;;;;;;;6.35;4.25;;;;;;;;;;6251115;28;20053;-72
2023/01/11 04:18:07;;;;;;;9.13;4.68;;;;;;;;;;6250166;28;20053;-75
2023/01/11 04:21:09;;;;;;;9.25;4.55;;;;;;;;;;6251948;28;20053;-70
2023/01/11 04:24:12;;;;;;;9.25;4.45;;;;;;;;;;6253154;28;20121;-70
2023/01/11 04:27:14;;;;;;;9.03;4.20;;;;;;;;;;6250025;28;20091;-74
2023/01/11 04:30:16;;;;;;;8.20;4.63;;;;;;;;;;6247652;28;20099;-75
2023/01/11 04:33:19;;;;;;;7.88;4.28;;;;;;;;;;6250923;28;20057;-72
2023/01/11 04:36:20;;;;;;;9.35;4.47;;;;;;;;;;6247388;28;20285;-76
2023/01/11 04:39:22;;;;;;;9.07;4.50;;;;;;;;;;6251797;28;20076;-75
2023/01/11 04:42:24;;;;;;;7.95;4.22;;;;;;;;;;6246154;28;20045;-75
2023/01/11 04:45:26;;;;;;;8.23;5.05;;;;;;;;;;6252300;28;20515;-72
2023/01/11 04:48:29;;;;;;;7.97;4.22;;;;;;;;;;6248619;28;20052;-75
2023/01/11 04:51:31;;;;;;;10.60;4.82;;;;;;;;;;6246699;28;20211;-71
2023/01/11 04:54:32;;;;;;;7.50;4.20;;;;;;;;;;6247726;28;20241;-75
2023/01/11 04:57:34;;;;;;;7.43;4.15;;;;;;;;;;6245615;28;20054;-75
2023/01/11 05:00:36;;;;;;;6.32;4.07;;;;;;;;;;6248520;28;20069;-73
2023/01/11 05:03:39;;;;;;;7.70;4.07;;;;;;;;;;6248927;28;20056;-75
2023/01/11 05:06:40;;;;;;;7.00;4.03;;;;;;;;;;6250686;28;20054;-77
2023/01/11 05:09:42;;;;;;;9.02;4.05;;;;;;;;;;6248696;28;20534;-74
2023/01/11 05:12:45;;;;;;;8.13;4.10;;;;;;;;;;6248314;28;20050;-76
2023/01/11 05:15:48;;;;;;;8.32;4.10;;;;;;;;;;6251554;28;20091;-70
2023/01/11 05:18:52;;;;;;;9.13;4.30;;;;;;;;;;6247268;28;20053;-75
2023/01/11 05:21:54;;;;;;;9.32;4.82;;;;;;;;;;6248646;28;20056;-74
2023/01/11 05:24:55;;;;;;;9.90;4.68;;;;;;;;;;6251362;28;20104;-75
2023/01/11 05:27:57;;;;;;;11.23;5.43;;;;;;;;;;6248838;28;20057;-75
2023/01/11 05:30:59;;;;;;;9.00;4.53;;;;;;;;;;6247232;28;20045;-73
2023/01/11 05:34:02;;;;;;;10.20;4.75;;;;;;;;;;6243528;28;20050;-74
2023/01/11 05:37:03;;;;;;;8.88;4.90;;;;;;;;;;6248940;28;20048;-70
2023/01/11 05:40:06;;;;;;;11.30;4.30;;;;;;;;;;6247670;28;20333;-75
2023/01/11 05:43:08;;;;;;;9.75;4.45;;;;;;;;;;6245379;28;20124;-75
2023/01/11 05:46:09;;;;;;;10.90;4.75;;;;;;;;;;6243834;28;20073;-69
2023/01/11 05:49:13;;;;;;;14.35;4.65;;;;;;;;;;6247290;28;20269;-74
2023/01/11 05:52:14;;;;;;;15.15;4.70;;;;;;;;;;6246841;28;20068;-75
2023/01/11 05:55:16;;;;;;;12.57;5.70;;;;;;;;;;6246682;28;20100;-73
2023/01/11 05:58:18;;;;;;;16.80;5.95;;;;;;;;;;6248858;28;20076;-73
2023/01/11 06:01:21;;;;;;;12.65;6.20;;;;;;;;;;6249173;28;20057;-75
2023/01/11 06:04:24;;;;;;;15.95;5.97;;;;;;;;;;6247808;28;20186;-74
2023/01/11 06:07:26;;;;;;;9.38;5.38;;;;;;;;;;6243925;28;20380;-69
2023/01/11 06:10:28;;;;;;;11.77;6.43;;;;;;;;;;6245530;28;20053;-73
2023/01/11 06:13:30;;;;;;;14.48;6.53;;;;;;;;;;6248199;28;20049;-73
2023/01/11 06:16:31;;;;;;;15.23;7.32;;;;;;;;;;6245401;28;20061;-73
2023/01/11 06:19:34;;;;;;;12.50;7.13;;;;;;;;;;6246805;28;20204;-72
2023/01/11 06:22:36;;;;;;;15.85;7.00;;;;;;;;;;6247169;28;20062;-73
2023/01/11 06:25:38;;;;;;;13.45;6.28;;;;;;;;;;6247245;28;20045;-72
2023/01/11 06:28:40;;;;;;;13.18;6.65;;;;;;;;;;6244388;28;20053;-73
2023/01/11 06:31:41;;;;;;;13.65;7.20;;;;;;;;;;6246930;28;20060;-68
2023/01/11 06:34:44;;;;;;;14.55;6.72;;;;;;;;;;6245746;28;20341;-74
2023/01/11 06:37:46;;;;;;;11.63;6.68;;;;;;;;;;6245982;28;20057;-73
2023/01/11 06:40:52;;;;;;;20.02;7.30;;;;;;;;;;6246770;28;20481;-68
2023/01/11 06:43:54;;;;;;;10.43;6.35;;;;;;;;;;6244702;28;20226;-69
2023/01/11 06:46:56;;;;;;;15.70;6.60;;;;;;;;;;6245607;28;20274;-69
2023/01/11 06:49:59;;;;;;;13.18;6.78;;;;;;;;;;6248200;28;20076;-70
2023/01/11 06:53:01;;;;;;;11.45;6.43;;;;;;;;;;6242609;28;20238;-73
2023/01/11 06:56:03;;;;;;;12.77;6.22;;;;;;;;;;6244610;28;20337;-72
2023/01/11 06:59:05;;;;;;;11.20;6.60;;;;;;;;;;6245723;28;20049;-73
2023/01/11 07:02:08;;;;;;;12.50;5.97;;;;;;;;;;6242904;28;20053;-73
2023/01/11 07:05:12;;;;;;;13.50;6.97;;;;;;;;;;6246393;28;20205;-72
2023/01/11 07:08:14;;;;;;;12.38;6.45;;;;;;;;;;6245001;28;20107;-73
2023/01/11 07:11:15;;;;;;;15.02;6.28;;;;;;;;;;6244956;28;20052;-73
2023/01/11 07:14:18;;;;;;;11.45;6.32;;;;;;;;;;6245560;28;20060;-74
2023/01/11 07:17:20;;;;;;;11.93;6.45;;;;;;;;;;6244844;28;20920;-70
2023/01/11 07:20:24;;;;;;;14.57;6.93;;;;;;;;;;6245390;28;20049;-74
2023/01/11 07:23:26;;;;;;;12.52;6.15;;;;;;;;;;6245141;28;20248;-73
2023/01/11 07:26:28;;;;;;;13.10;6.97;;;;;;;;;;6242592;28;20159;-73
2023/01/11 07:29:30;;;;;;;12.98;7.00;;;;;;;;;;6246757;28;20443;-69
2023/01/11 07:32:31;;;;;;;13.02;7.43;;;;;;;;;;6249451;28;20063;-74
2023/01/11 07:35:34;;;;;;;13.15;6.60;;;;;;;;;;6251573;28;20057;-72
2023/01/11 07:38:36;;;;;;;16.25;7.97;;;;;;;;;;6251959;28;20061;-73
2023/01/11 07:44:57;;;;;;;15.98;8.60;;;;;;;;;;6249867;28;20325;-73
2023/01/11 07:47:59;;;;;;;14.57;7.32;;;;;;;;;;6248152;28;20065;-71
2023/01/11 07:51:02;;;;;;;16.58;7.63;;;;;;;;;;6251595;28;20042;-73
2023/01/11 07:54:04;;;;;;;15.90;7.07;;;;;;;;;;6248249;28;20049;-73
2023/01/11 07:57:05;;;;;;;13.80;7.00;;;;;;;;;;6250560;28;20302;-73
2023/01/11 08:00:08;;;;;;;11.85;6.80;;;;;;;;;;6248797;28;20388;-74
2023/01/11 08:03:10;;;;;;;9.20;5.63;;;;;;;;;;6249172;28;20042;-70
2023/01/11 08:06:14;;;;;;;13.15;5.50;;;;;;;;;;6249400;28;20083;-72
2023/01/11 08:09:15;;;;;;;12.27;6.13;;;;;;;;;;6250094;28;20120;-74
2023/01/11 08:15:36;;;;;;;7.30;3.88;;;;;;;;;;6250601;28;20045;-73
2023/01/11 08:18:38;;;;;;;6.88;3.47;;;;;;;;;;6250282;28;20049;-72
2023/01/11 08:21:43;;;;;;;6.93;3.40;;;;;;;;;;6248875;28;20060;-74
2023/01/11 08:24:44;;;;;;;9.05;3.45;;;;;;;;;;6250173;28;20054;-72
2023/01/11 08:27:46;;;;;;;12.07;3.80;;;;;;;;;;6247055;28;20053;-73
2023/01/11 08:30:48;;;;;;;10.05;4.50;;;;;;;;;;6249501;28;20346;-72
2023/01/11 08:33:50;;;;;;;8.50;4.40;;;;;;;;;;6248976;28;20056;-71
2023/01/11 08:36:55;;;;;;;6.70;3.92;;;;;;;;;;6225210;28;20052;-68
2023/01/11 08:39:57;;;;;;;9.65;4.07;;;;;;;;;;6249496;28;20054;-73
2023/01/11 08:42:59;;;;;;;10.43;4.15;;;;;;;;;;6246920;28;20072;-74
2023/01/11 08:46:00;;;;;;;10.50;5.10;;;;;;;;;;6250017;28;20092;-74
2023/01/11 08:49:02;;;;;;;8.70;4.65;;;;;;;;;;6249315;28;20050;-74
2023/01/11 08:52:05;;;;;;;9.77;4.57;;;;;;;;;;6249420;28;20095;-71
2023/01/11 08:55:07;;;;;;;9.68;4.15;;;;;;;;;;6249725;28;20049;-68
2023/01/11 08:58:09;;;;;;;8.95;4.80;;;;;;;;;;6249261;28;20061;-74
2023/01/11 09:01:11;;;;;;;8.82;5.10;;;;;;;;;;6248313;28;20053;-73
2023/01/11 09:04:13;;;;;;;11.00;4.85;;;;;;;;;;6248912;28;20053;-74
2023/01/11 09:07:16;;;;;;;7.82;4.78;;;;;;;;;;6250002;28;20057;-74
2023/01/11 09:10:17;;;;;;;11.35;4.68;;;;;;;;;;6247790;28;20060;-72
2023/01/11 09:13:19;;;;;;;9.65;4.82;;;;;;;;;;6247617;28;20058;-71
2023/01/11 09:16:21;;;;;;;8.15;5.40;;;;;;;;;;6248330;28;20053;-74
2023/01/11 09:19:23;;;;;;;8.75;4.50;;;;;;;;;;6249564;28;20046;-73
2023/01/11 09:22:26;;;;;;;10.15;5.07;;;;;;;;;;6250627;28;20053;-74
2023/01/11 09:25:28;;;;;;;7.97;4.40;;;;;;;;;;6249794;28;20049;-71
2023/01/11 09:28:30;;;;;;;10.52;4.75;;;;;;;;;;6247930;28;20060;-74
2023/01/11 09:31:31;;;;;;;10.43;4.25;;;;;;;;;;6248541;28;20060;-73
2023/01/11 09:34:33;;;;;;;8.45;4.38;;;;;;;;;;6246107;28;20088;-73
2023/01/11 09:37:40;;;;;;;10.55;4.20;;;;;;;;;;6247294;28;20053;-73
2023/01/11 09:40:49;;;;;;;9.77;5.20;;;;;;;;;;6246424;28;20090;-72
2023/01/11 09:43:55;;;;;;;7.43;4.22;;;;;;;;;;6249259;28;20049;-74
2023/01/11 09:47:12;;;;;;;11.00;4.82;;;;;;;;;;6246760;28;20045;-73
2023/01/11 09:50:18;;;;;;;8.20;3.40;;;;;;;;;;6246706;28;20273;-72
2023/01/11 09:53:26;;;;;;;8.20;4.30;;;;;;;;;;6247694;28;20056;-68
2023/01/11 09:56:35;;;;;;;4.85;2.97;;;;;;;;;;6249397;28;20989;-72
2023/01/11 09:59:44;;;;;;;8.10;3.30;;;;;;;;;;6249014;28;20060;-74
2023/01/11 10:02:58;;;;;;;8.38;4.13;;;;;;;;;;6248970;28;20095;-71
2023/01/11 10:06:09;;;;;;;4.95;3.25;;;;;;;;;;6245800;28;20052;-70
2023/01/11 10:09:22;;;;;;;6.97;3.65;;;;;;;;;;6243990;28;20049;-69
2023/01/11 10:12:31;;;;;;;6.47;3.67;;;;;;;;;;6248792;28;20053;-73
2023/01/11 10:15:37;;;;;;;8.07;3.67;;;;;;;;;;6250347;28;20092;-74
2023/01/11 10:18:51;;;;;;;14.00;4.28;;;;;;;;;;6245792;28;20115;-73
2023/01/11 10:21:55;;;;;;;12.43;4.13;;;;;;;;;;6248967;28;20058;-73
2023/01/11 10:25:06;;;;;;;9.40;3.92;;;;;;;;;;6246559;28;20053;-72
2023/01/11 10:28:16;;;;;;;6.80;3.95;;;;;;;;;;6245671;28;20076;-73
2023/01/11 10:31:28;;;;;;;8.25;4.15;;;;;;;;;;6247960;28;20081;-74
2023/01/11 10:34:48;;;;;;;11.10;4.00;;;;;;;;;;6245682;28;20053;-74
2023/01/11 10:38:06;;;;;;;5.70;3.78;;;;;;;;;;6249431;28;20107;-74
2023/01/11 10:41:20;;;;;;;6.70;4.13;;;;;;;;;;6246300;28;20045;-73
2023/01/11 10:44:30;;;;;;;6.40;3.88;;;;;;;;;;6246351;28;20073;-73
2023/01/11 10:47:36;;;;;;;10.75;4.47;;;;;;;;;;6249519;28;20063;-74
2023/01/11 10:50:41;;;;;;;8.70;4.15;;;;;;;;;;6247783;28;20069;-74
2023/01/11 10:53:47;;;;;;;8.93;5.35;;;;;;;;;;6250827;28;20325;-73
2023/01/11 10:57:00;;;;;;;12.05;4.35;;;;;;;;;;6246797;28;20064;-74
2023/01/11 11:00:19;;;;;;;9.38;4.45;;;;;;;;;;6246536;28;20063;-73
2023/01/11 11:03:44;;;;;;;6.78;4.53;;;;;;;;;;6247315;28;20158;-74
2023/01/11 11:06:53;;;;;;;6.90;4.38;;;;;;;;;;6245320;28;20885;-74
2023/01/11 11:09:57;;;;;;;10.50;5.50;;;;;;;;;;6247106;28;20343;-73
2023/01/11 11:13:06;;;;;;;8.20;4.70;;;;;;;;;;6245919;28;20049;-74
2023/01/11 11:16:15;;;;;;;7.15;4.18;;;;;;;;;;6246509;28;20050;-73
2023/01/11 11:19:21;;;;;;;9.65;4.43;;;;;;;;;;6246477;28;20104;-74
2023/01/11 11:22:22;;;;;;;7.03;4.60;;;;;;;;;;6247185;28;20060;-68
2023/01/11 11:25:29;;;;;;;9.45;4.70;;;;;;;;;;6246601;28;20321;-74
2023/01/11 11:28:32;;;;;;;12.38;4.65;;;;;;;;;;6247108;28;20232;-71
2023/01/11 11:31:36;;;;;;;7.38;4.82;;;;;;;;;;6246849;28;20058;-73
2023/01/11 11:34:38;;;;;;;9.35;4.95;;;;;;;;;;6246046;28;20147;-73
2023/01/11 11:37:42;;;;;;;9.13;4.72;;;;;;;;;;6244699;28;20245;-73
2023/01/11 11:40:44;;;;;;;10.18;5.47;;;;;;;;;;6243954;28;20056;-73
2023/01/11 11:43:47;;;;;;;7.88;5.10;;;;;;;;;;6247588;28;20053;-73
2023/01/11 11:46:59;;;;;;;14.57;5.28;;;;;;;;;;6244697;28;20064;-73
2023/01/11 11:50:24;;;;;;;10.63;4.55;;;;;;;;;;6245832;28;20053;-77
2023/01/11 11:53:36;;;;;;;;;;;;;;;;;;6247118;28;20348;-74
2023/01/11 11:56:37;;;;;;;14.00;4.78;;;;;;;;;;6243583;28;20202;-67
2023/01/11 11:59:44;;;;;;;8.38;4.85;;;;;;;;;;6247870;28;20056;-71
2023/01/11 12:02:50;;;;;;;13.70;5.82;;;;;;;;;;6246860;28;20053;-72
2023/01/11 12:05:54;;;;;;;10.30;5.18;;;;;;;;;;6246127;28;20304;-72
2023/01/11 12:09:00;;;;;;;9.57;5.45;;;;;;;;;;6244005;28;20116;-72
2023/01/11 12:12:03;;;;;;;30.00;6.68;;;;;;;;;;6243733;28;20076;-69
2023/01/11 12:15:19;;;;;;;13.77;5.38;;;;;;;;;;6245719;28;20076;-73
2023/01/11 12:18:24;;;;;;;9.13;5.25;;;;;;;;;;6247098;28;20050;-71
2023/01/11 12:21:28;;;;;;;10.88;5.35;;;;;;;;;;6249756;28;20117;-74
2023/01/11 12:24:30;;;;;;;9.48;5.40;;;;;;;;;;6249089;28;20057;-73
2023/01/11 12:27:38;;;;;;;8.40;5.60;;;;;;;;;;6248945;28;20057;-74
2023/01/11 12:30:44;;;;;;;9.02;5.18;;;;;;;;;;6246751;28;20049;-73
2023/01/11 12:33:49;;;;;;;7.93;5.30;;;;;;;;;;6245794;28;20057;-79
2023/01/11 12:36:57;;;;;;;11.82;6.82;;;;;;;;;;6248918;28;20143;-79
2023/01/11 12:40:06;;;;;;;34.78;16.90;;;;;;;;;;6250207;28;20276;-78
2023/01/11 12:43:24;;;;;;;48.45;24.33;;;;;;;;;;6248563;28;20056;-78
2023/01/11 12:46:34;;;;;;;99.13;47.40;;;;;;;;;;6250712;28;20057;-78
2023/01/11 12:49:41;;;;;;;83.38;39.92;;;;;;;;;;6247172;28;20104;-76
2023/01/11 12:53:07;;;;;;;30.63;17.45;;;;;;;;;;6244200;28;20229;-75
2023/01/11 12:56:24;;;;;;;68.35;33.58;;;;;;;;;;6248841;28;20057;-76
2023/01/11 12:59:44;;;;;;;13.13;8.70;;;;;;;;;;6248288;28;20108;-79
2023/01/11 13:03:06;;;;;;;10.75;6.53;;;;;;;;;;6246529;28;20054;-74
2023/01/11 13:06:11;;;;;;;9.63;6.53;;;;;;;;;;6244898;28;20049;-75
2023/01/11 13:09:20;;;;;;;9.18;6.13;;;;;;;;;;6247650;28;20333;-75
2023/01/11 13:12:25;;;;;;;10.57;6.15;;;;;;;;;;6249088;28;20675;-75
2023/01/11 13:15:40;;;;;;;11.38;7.00;;;;;;;;;;6246763;28;20062;-74
2023/01/11 13:18:46;;;;;;;12.43;6.70;;;;;;;;;;6247936;28;20041;-73
2023/01/11 13:21:52;;;;;;;12.02;6.68;;;;;;;;;;6250796;28;20276;-74
2023/01/11 13:24:53;;;;;;;10.30;7.50;;;;;;;;;;6248251;28;20056;-74
2023/01/11 13:27:57;;;;;;;10.57;6.72;;;;;;;;;;6249763;28;20376;-77
2023/01/11 13:30:59;;;;;;;14.48;7.07;;;;;;;;;;6249854;28;20053;-75
2023/01/11 13:34:07;;;;;;;15.40;7.40;;;;;;;;;;6247256;28;20061;-75
2023/01/11 13:37:14;;;;;;;15.65;8.15;;;;;;;;;;6247599;28;20205;-73
2023/01/11 13:40:19;;;;;;;10.32;7.20;;;;;;;;;;6246747;28;20042;-74
2023/01/11 13:43:26;;;;;;;13.07;7.22;;;;;;;;;;6250593;28;20329;-71
2023/01/11 13:46:40;;;;;;;12.88;7.60;;;;;;;;;;6244196;28;20053;-76
2023/01/11 13:49:49;;;;;;;11.15;7.65;;;;;;;;;;6245294;28;20234;-72
2023/01/11 13:52:58;;;;;;;12.23;7.18;;;;;;;;;;6243995;28;20283;-71
2023/01/11 13:56:05;;;;;;;14.63;7.15;;;;;;;;;;6244339;28;20115;-76
2023/01/11 13:59:12;;;;;;;15.13;7.97;;;;;;;;;;6247840;28;20065;-75
2023/01/11 14:02:17;;;;;;;12.48;7.53;;;;;;;;;;6247225;28;20065;-78
2023/01/11 14:05:22;;;;;;;14.07;7.43;;;;;;;;;;6246106;28;20104;-74
2023/01/11 14:08:56;;;;;;;12.18;7.28;;;;;;;;;;6246150;28;20116;-72
2023/01/11 14:12:03;;;;;;;13.55;7.03;;;;;;;;;;6245763;28;20278;-73
2023/01/11 14:15:19;;;;;;;14.45;8.00;;;;;;;;;;6248521;28;20042;-71
2023/01/11 14:18:28;;;;;;;57.05;31.98;;;;;;;;;;6247332;28;20095;-81
2023/01/11 14:21:34;;;;;;;36.33;22.20;;;;;;;;;;6245206;28;20211;-76
2023/01/11 14:24:38;;;;;;;10.68;8.93;;;;;;;;;;6245386;28;20053;-76
2023/01/11 14:27:48;;;;;;;;;;;;;;;;;;6243695;28;20065;-75
2023/01/11 14:31:10;;;;;;;10.60;6.60;;;;;;;;;;6246221;28;19924;-76
2023/01/11 14:34:44;;;;;;;8.80;6.50;;;;;;;;;;6246587;28;20061;-74
2023/01/11 14:38:14;;;;;;;9.80;6.85;;;;;;;;;;6166178;28;20062;-74
2023/01/11 14:41:34;;;;;;;11.82;6.07;;;;;;;;;;6162756;28;20053;-69
2023/01/11 14:44:57;;;;;;;9.02;6.00;;;;;;;;;;6165385;28;20038;-74
2023/01/11 14:48:06;;;;;;;11.52;6.95;;;;;;;;;;6163595;28;20089;-74
2023/01/11 14:51:23;;;;;;;10.77;6.68;;;;;;;;;;6169368;28;20047;-74
2023/01/11 14:54:29;;;;;;;8.80;6.10;;;;;;;;;;6165628;28;20485;-75
2023/01/11 14:57:39;;;;;;;10.93;6.38;;;;;;;;;;6165724;28;20122;-74
2023/01/11 15:01:09;;;;;;;10.02;5.60;;;;;;;;;;6163878;28;20070;-72
2023/01/11 15:04:20;;;;;;;9.48;5.90;;;;;;;;;;6166519;28;20053;-73
2023/01/11 15:07:23;;;;;;;8.93;6.25;;;;;;;;;;6165502;28;20243;-75
2023/01/11 15:10:59;;;;;;;9.60;5.97;;;;;;;;;;6164421;28;20238;-76
2023/01/11 15:14:04;;;;;;;11.88;6.60;;;;;;;;;;6128168;28;20055;-74
2023/01/11 15:20:32;;;;;;;11.70;6.47;;;;;;;;;;6142854;28;20071;-75
2023/01/11 15:23:36;;;;;;;12.00;6.82;;;;;;;;;;6144443;28;20059;-74
2023/01/11 15:26:47;;;;;;;12.65;7.50;;;;;;;;;;6143056;28;20091;-75
2023/01/11 15:29:53;;;;;;;11.93;7.05;;;;;;;;;;6146024;28;20082;-76
2023/01/11 15:33:28;;;;;;;14.52;6.85;;;;;;;;;;6144786;28;20059;-77
2023/01/11 15:36:56;;;;;;;15.10;7.22;;;;;;;;;;6143902;28;20349;-76
2023/01/11 15:39:59;;;;;;;12.50;6.55;;;;;;;;;;6145741;28;20378;-74
2023/01/11 15:43:32;;;;;;;11.47;6.23;;;;;;;;;;6143053;28;20051;-75
2023/01/11 15:46:55;;;;;;;8.57;6.30;;;;;;;;;;6151883;28;20044;-71
2023/01/11 15:50:17;;;;;;;17.40;7.28;;;;;;;;;;6244446;28;20068;-76
2023/01/11 15:53:48;;;;;;;12.35;8.25;;;;;;;;;;6248602;28;20064;-74
2023/01/11 15:57:17;;;;;;;12.98;7.63;;;;;;;;;;6250222;28;20117;-76
2023/01/11 16:00:36;;;;;;;13.50;6.65;;;;;;;;;;6246769;28;20054;-74
2023/01/11 16:03:56;;;;;;;14.02;7.05;;;;;;;;;;6247030;28;21242;-75
2023/01/11 16:07:01;;;;;;;11.95;6.53;;;;;;;;;;6246939;28;20042;-73
2023/01/11 16:10:15;;;;;;;11.82;7.00;;;;;;;;;;6246867;28;20053;-75
2023/01/11 16:13:29;;;;;;;9.07;5.55;;;;;;;;;;6248526;28;20338;-72
2023/01/11 16:16:39;;;;;;;12.77;7.18;;;;;;;;;;6248108;28;20053;-79
2023/01/11 16:19:43;;;;;;;234.95;105.85;;;;;;;;;;6250744;28;20057;-81
2023/01/11 16:22:47;;;;;;;26.52;15.27;;;;;;;;;;6249397;28;20167;-80
2023/01/11 16:25:52;;;;;;;144.52;63.13;;;;;;;;;;6251015;28;20045;-75
2023/01/11 16:28:57;;;;;;;84.72;41.05;;;;;;;;;;6252492;28;20269;-79
2023/01/11 16:32:02;;;;;;;20.52;13.13;;;;;;;;;;6249385;28;20064;-71
2023/01/11 16:35:17;;;;;;;26.27;15.05;;;;;;;;;;6249785;28;20053;-80
2023/01/11 16:38:20;;;;;;;11.20;7.85;;;;;;;;;;6249763;28;20041;-75
2023/01/11 16:41:24;;;;;;;88.40;35.33;;;;;;;;;;6250167;28;20059;-79
2023/01/11 16:44:34;;;;;;;18.13;9.77;;;;;;;;;;6248837;28;20218;-75
2023/01/11 16:47:37;;;;;;;8.90;6.57;;;;;;;;;;6250256;28;20060;-75
2023/01/11 16:50:40;;;;;;;13.60;7.72;;;;;;;;;;6249143;28;20281;-75
2023/01/11 16:53:43;;;;;;;15.95;9.02;;;;;;;;;;6246994;28;20057;-74
2023/01/11 16:56:47;;;;;;;15.70;9.32;;;;;;;;;;6247063;28;20053;-74
2023/01/11 17:00:00;;;;;;;15.23;9.85;;;;;;;;;;6250810;28;20046;-74
2023/01/11 17:03:18;;;;;;;15.75;10.05;;;;;;;;;;6247762;28;20072;-70
2023/01/11 17:06:21;;;;;;;16.77;11.07;;;;;;;;;;6249142;28;20105;-71
2023/01/11 17:09:24;;;;;;;16.08;10.52;;;;;;;;;;6250107;28;20049;-72
2023/01/11 17:12:26;;;;;;;16.80;11.13;;;;;;;;;;6247066;28;20402;-75
2023/01/11 17:15:31;;;;;;;17.15;11.43;;;;;;;;;;6249388;28;20057;-75
2023/01/11 17:18:38;;;;;;;19.85;11.48;;;;;;;;;;6246495;28;20218;-75
2023/01/11 17:21:40;;;;;;;19.38;11.40;;;;;;;;;;6248101;28;20053;-75
2023/01/11 17:24:42;;;;;;;18.30;11.45;;;;;;;;;;6249529;28;20092;-73
2023/01/11 17:27:46;;;;;;;21.63;12.25;;;;;;;;;;6251700;28;20041;-75
2023/01/11 17:30:50;;;;;;;19.88;11.45;;;;;;;;;;6247312;28;20046;-75
2023/01/11 17:34:02;;;;;;;20.55;12.63;;;;;;;;;;6249245;28;20059;-68
2023/01/11 17:37:09;;;;;;;22.83;12.77;;;;;;;;;;6245697;28;20046;-73
2023/01/11 17:40:20;;;;;;;21.20;13.45;;;;;;;;;;6247164;28;20057;-75
2023/01/11 17:46:49;;;;;;;21.52;12.95;;;;;;;;;;6238023;28;20116;-75
2023/01/11 17:49:53;;;;;;;20.77;13.18;;;;;;;;;;6239897;28;20045;-75
2023/01/11 17:53:02;;;;;;;27.90;14.02;;;;;;;;;;6240794;28;20369;-74
2023/01/11 17:56:06;;;;;;;22.17;12.70;;;;;;;;;;6237281;28;20461;-70
2023/01/11 17:59:26;;;;;;;21.52;12.80;;;;;;;;;;6237779;28;20342;-75
2023/01/11 18:02:27;;;;;;;24.20;14.05;;;;;;;;;;6237345;28;20222;-75
2023/01/11 18:05:30;;;;;;;21.17;13.00;;;;;;;;;;6238096;28;20120;-75
2023/01/11 18:08:32;;;;;;;25.45;12.63;;;;;;;;;;6240391;28;20050;-74
2023/01/11 18:11:36;;;;;;;20.70;12.73;;;;;;;;;;6241289;28;20121;-69
2023/01/11 18:14:40;;;;;;;21.30;13.52;;;;;;;;;;6238237;28;20041;-73
2023/01/11 18:17:42;;;;;;;19.77;12.77;;;;;;;;;;6242657;28;20084;-71
2023/01/11 18:20:46;;;;;;;19.88;13.95;;;;;;;;;;6236005;28;20341;-68
2023/01/11 18:23:48;;;;;;;21.10;13.47;;;;;;;;;;6245872;28;20277;-72
2023/01/11 18:27:06;;;;;;;26.02;13.35;;;;;;;;;;6244610;28;20280;-73
2023/01/11 18:30:35;;;;;;;19.77;12.45;;;;;;;;;;6239216;28;20054;-70
2023/01/11 18:33:40;;;;;;;22.23;13.25;;;;;;;;;;6244371;28;20096;-75
2023/01/11 18:36:43;;;;;;;25.80;13.00;;;;;;;;;;6243899;28;20068;-73
2023/01/11 18:39:45;;;;;;;22.45;13.50;;;;;;;;;;6241348;28;20050;-73
2023/01/11 18:42:48;;;;;;;20.27;13.90;;;;;;;;;;6246878;28;20059;-74
2023/01/11 18:45:50;;;;;;;21.50;13.50;;;;;;;;;;6242398;28;20045;-74
2023/01/11 18:48:52;;;;;;;23.27;13.85;;;;;;;;;;6243888;28;20053;-74
2023/01/11 18:51:55;;;;;;;19.90;13.52;;;;;;;;;;6245935;28;20045;-71
2023/01/11 18:54:57;;;;;;;21.13;13.83;;;;;;;;;;6229624;28;20034;-74